createdAt,value
2023-03-29T00:02:20.096Z,7.80
2023-03-29T00:04:47.430Z,7.22
2023-03-29T00:07:14.844Z,8.05
2023-03-29T00:09:42.546Z,7.47
2023-03-29T00:12:11.672Z,7.72
2023-03-29T00:14:38.923Z,7.95
2023-03-29T00:17:06.473Z,7.65
2023-03-29T00:19:36.747Z,8.02
2023-03-29T00:22:07.991Z,7.88
2023-03-29T00:24:36.209Z,7.82
2023-03-29T00:27:03.535Z,7.75
2023-03-29T00:29:30.777Z,7.78
2023-03-29T00:31:58.635Z,7.63
2023-03-29T00:34:30.776Z,7.72
2023-03-29T00:36:58.808Z,7.50
2023-03-29T00:39:26.589Z,7.20
2023-03-29T00:41:56.047Z,6.88
2023-03-29T00:44:57.980Z,6.85
2023-03-29T00:47:41.598Z,6.65
2023-03-29T00:50:15.809Z,6.63
2023-03-29T00:52:46.347Z,5.95
2023-03-29T00:55:18.889Z,6.32
2023-03-29T00:57:46.946Z,5.75
2023-03-29T01:00:18.157Z,5.85
2023-03-29T01:02:51.181Z,5.97
2023-03-29T01:05:22.698Z,6.13
2023-03-29T01:07:58.240Z,7.32
2023-03-29T01:10:31.883Z,6.63
2023-03-29T01:13:05.179Z,7.57
2023-03-29T01:15:33.266Z,7.80
2023-03-29T01:18:02.034Z,8.63
2023-03-29T01:20:44.982Z,11.00
2023-03-29T01:23:31.688Z,10.45
2023-03-29T01:26:13.926Z,11.00
2023-03-29T01:28:51.786Z,9.55
2023-03-29T01:31:27.352Z,8.20
2023-03-29T01:34:06.028Z,6.88
2023-03-29T01:36:41.665Z,6.30
2023-03-29T01:39:09.165Z,6.47
2023-03-29T01:42:01.998Z,5.60
2023-03-29T01:44:41.538Z,5.55
2023-03-29T01:47:13.238Z,5.63
2023-03-29T01:49:45.339Z,5.60
2023-03-29T01:52:20.723Z,5.68
2023-03-29T01:54:55.225Z,5.65
2023-03-29T01:57:24.977Z,5.40
2023-03-29T01:59:54.722Z,5.50
2023-03-29T02:02:24.116Z,6.10
2023-03-29T02:04:54.080Z,6.15
2023-03-29T02:07:24.833Z,5.75
2023-03-29T02:09:53.760Z,5.97
2023-03-29T02:12:22.226Z,5.70
2023-03-29T02:14:49.583Z,5.95
2023-03-29T02:17:22.215Z,6.10
2023-03-29T02:19:55.825Z,5.53
2023-03-29T02:22:33.362Z,5.78
2023-03-29T02:25:01.783Z,6.10
2023-03-29T02:27:29.966Z,6.20
2023-03-29T02:29:58.341Z,6.03
2023-03-29T02:32:31.001Z,5.70
2023-03-29T02:35:01.939Z,6.43
2023-03-29T02:37:31.347Z,5.38
2023-03-29T02:39:59.545Z,5.75
2023-03-29T02:42:28.647Z,5.63
2023-03-29T02:44:57.793Z,6.78
2023-03-29T02:47:31.552Z,6.30
2023-03-29T02:50:02.069Z,5.60
2023-03-29T02:52:35.640Z,5.50
2023-03-29T02:55:04.267Z,5.25
2023-03-29T02:57:32.468Z,6.00
2023-03-29T03:00:01.183Z,5.82
2023-03-29T03:02:29.651Z,5.63
2023-03-29T03:04:57.804Z,5.68
2023-03-29T03:07:25.221Z,5.50
2023-03-29T03:09:52.757Z,5.45
2023-03-29T03:12:20.175Z,5.63
2023-03-29T03:14:47.445Z,5.47
2023-03-29T03:17:14.680Z,5.45
2023-03-29T03:19:42.676Z,5.53
2023-03-29T03:22:11.701Z,5.43
2023-03-29T03:24:38.984Z,5.43
2023-03-29T03:27:06.473Z,6.25
2023-03-29T03:29:33.779Z,5.20
2023-03-29T03:32:16.266Z,5.25
2023-03-29T03:35:11.635Z,5.22
2023-03-29T03:37:40.900Z,5.13
2023-03-29T03:40:11.643Z,4.90
2023-03-29T03:42:41.054Z,5.40
2023-03-29T03:45:10.622Z,5.22
2023-03-29T03:47:52.580Z,5.47
2023-03-29T03:50:25.266Z,4.85
2023-03-29T03:52:52.785Z,5.20
2023-03-29T03:55:22.084Z,4.30
2023-03-29T03:58:03.258Z,4.18
2023-03-29T04:00:31.046Z,4.47
2023-03-29T04:03:17.203Z,4.00
2023-03-29T04:05:45.910Z,3.75
2023-03-29T04:08:14.989Z,3.85
2023-03-29T04:11:01.205Z,3.80
2023-03-29T04:13:37.250Z,3.63
2023-03-29T04:16:28.578Z,3.50
2023-03-29T04:19:00.749Z,3.28
2023-03-29T04:21:29.050Z,3.40
2023-03-29T04:23:56.324Z,3.33
2023-03-29T04:26:23.952Z,3.33
2023-03-29T04:28:57.429Z,3.58
2023-03-29T04:31:36.048Z,3.33
2023-03-29T04:34:14.797Z,3.47
2023-03-29T04:36:43.609Z,3.72
2023-03-29T04:39:20.507Z,3.58
2023-03-29T04:41:52.890Z,3.53
2023-03-29T04:44:24.079Z,3.30
2023-03-29T04:46:51.463Z,3.78
2023-03-29T04:49:37.741Z,3.25
2023-03-29T04:52:09.843Z,3.50
2023-03-29T04:54:38.116Z,3.53
2023-03-29T04:57:21.905Z,3.60
2023-03-29T05:00:15.344Z,3.60
2023-03-29T05:03:11.486Z,3.40
2023-03-29T05:05:43.570Z,3.50
2023-03-29T05:08:12.292Z,3.45
2023-03-29T05:10:59.688Z,3.22
2023-03-29T05:13:28.844Z,3.55
2023-03-29T05:15:57.249Z,3.28
2023-03-29T05:18:25.376Z,3.30
2023-03-29T05:20:54.177Z,3.22
2023-03-29T05:23:22.704Z,3.72
2023-03-29T05:26:09.961Z,3.88
2023-03-29T05:28:39.520Z,3.50
2023-03-29T05:31:08.509Z,3.85
2023-03-29T05:33:38.278Z,4.32
2023-03-29T05:36:13.653Z,4.15
2023-03-29T05:38:46.810Z,4.22
2023-03-29T05:41:15.816Z,4.30
2023-03-29T05:44:01.744Z,4.65
2023-03-29T05:46:30.203Z,4.22
2023-03-29T05:49:01.791Z,5.15
2023-03-29T05:51:47.274Z,4.43
2023-03-29T05:54:15.767Z,4.95
2023-03-29T05:56:43.485Z,4.85
2023-03-29T05:59:11.400Z,4.47
2023-03-29T06:01:40.102Z,4.25
2023-03-29T06:04:12.604Z,5.43
2023-03-29T06:06:46.944Z,6.75
2023-03-29T06:09:14.324Z,6.85
2023-03-29T06:11:52.901Z,5.00
2023-03-29T06:14:33.911Z,4.60
2023-03-29T06:17:11.008Z,4.68
2023-03-29T06:19:38.870Z,4.93
2023-03-29T06:22:06.234Z,5.35
2023-03-29T06:24:34.875Z,4.40
2023-03-29T06:27:08.812Z,4.50
2023-03-29T06:29:36.118Z,3.88
2023-03-29T06:32:03.957Z,4.55
2023-03-29T06:34:50.017Z,4.38
2023-03-29T06:37:32.987Z,5.57
2023-03-29T06:40:13.423Z,6.18
2023-03-29T06:42:46.102Z,5.00
2023-03-29T06:45:34.547Z,4.70
2023-03-29T06:48:06.327Z,5.05
2023-03-29T06:50:34.447Z,5.03
2023-03-29T06:53:10.336Z,5.32
2023-03-29T06:55:39.063Z,7.28
2023-03-29T06:58:23.188Z,7.53
2023-03-29T07:00:50.850Z,6.18
2023-03-29T07:03:30.437Z,5.13
2023-03-29T07:06:04.300Z,4.90
2023-03-29T07:08:35.266Z,5.20
2023-03-29T07:11:07.128Z,4.70
2023-03-29T07:13:46.194Z,4.80
2023-03-29T07:16:18.086Z,4.93
2023-03-29T07:19:08.929Z,5.30
2023-03-29T07:21:59.303Z,4.68
2023-03-29T07:24:38.317Z,4.63
2023-03-29T07:27:05.738Z,5.22
2023-03-29T07:29:34.010Z,5.55
2023-03-29T07:32:01.322Z,5.35
2023-03-29T07:34:43.960Z,5.22
2023-03-29T07:37:20.934Z,4.82
2023-03-29T07:39:48.274Z,4.60
2023-03-29T07:42:28.865Z,5.28
2023-03-29T07:44:56.393Z,4.63
2023-03-29T07:47:24.824Z,5.68
2023-03-29T07:49:52.131Z,4.45
2023-03-29T07:52:19.433Z,4.50
2023-03-29T07:54:46.732Z,4.53
2023-03-29T07:57:44.203Z,4.55
2023-03-29T08:00:16.738Z,4.78
2023-03-29T08:02:54.888Z,4.65
2023-03-29T08:05:33.847Z,4.40
2023-03-29T08:08:10.721Z,6.57
2023-03-29T08:11:04.496Z,5.05
2023-03-29T08:13:44.629Z,4.28
2023-03-29T08:16:27.319Z,3.90
2023-03-29T08:19:14.789Z,4.07
2023-03-29T08:22:00.716Z,4.18
2023-03-29T08:24:34.611Z,4.25
2023-03-29T08:27:06.207Z,4.57
2023-03-29T08:29:33.861Z,3.75
2023-03-29T08:32:01.175Z,4.22
2023-03-29T08:34:31.706Z,3.78
2023-03-29T08:37:21.924Z,4.15
2023-03-29T08:39:51.588Z,4.20
2023-03-29T08:42:39.021Z,5.10
2023-03-29T08:45:16.220Z,4.10
2023-03-29T08:48:08.419Z,4.13
2023-03-29T08:50:42.546Z,11.25
2023-03-29T08:53:24.810Z,8.75
2023-03-29T08:56:20.985Z,4.72
2023-03-29T08:59:26.389Z,5.05
2023-03-29T09:01:56.000Z,4.35
2023-03-29T09:04:29.583Z,4.85
2023-03-29T09:07:20.120Z,3.72
2023-03-29T09:09:48.102Z,4.35
2023-03-29T09:12:49.985Z,3.85
2023-03-29T09:15:56.799Z,4.40
2023-03-29T09:19:19.401Z,5.30
2023-03-29T09:21:59.288Z,3.72
2023-03-29T09:24:46.748Z,4.07
2023-03-29T09:30:27.964Z,3.63
2023-03-29T09:33:23.369Z,3.53
2023-03-29T09:36:21.224Z,4.00
2023-03-29T09:38:54.217Z,4.68
2023-03-29T09:41:54.132Z,4.10
2023-03-29T09:44:31.509Z,4.20
2023-03-29T09:47:24.013Z,4.25
2023-03-29T09:49:57.076Z,3.60
2023-03-29T09:52:24.558Z,6.57
2023-03-29T09:55:14.320Z,5.60
2023-03-29T09:57:59.102Z,4.30
2023-03-29T10:00:27.739Z,3.28
2023-03-29T10:02:57.783Z,3.30
2023-03-29T10:05:38.659Z,3.65
2023-03-29T10:08:29.676Z,4.00
2023-03-29T10:11:00.725Z,4.43
2023-03-29T10:13:31.325Z,7.07
2023-03-29T10:16:17.249Z,7.45
2023-03-29T10:18:44.788Z,16.48
2023-03-29T10:21:17.148Z,23.98
2023-03-29T10:23:44.649Z,11.57
2023-03-29T10:26:34.510Z,4.55
2023-03-29T10:29:03.571Z,6.80
2023-03-29T10:31:33.122Z,4.32
2023-03-29T10:34:05.552Z,4.97
2023-03-29T10:36:33.171Z,13.10
2023-03-29T10:39:05.921Z,7.88
2023-03-29T10:41:35.837Z,7.10
2023-03-29T10:44:03.697Z,9.70
2023-03-29T10:46:33.799Z,7.43
2023-03-29T10:49:10.327Z,5.32
2023-03-29T10:51:37.693Z,5.38
2023-03-29T10:54:07.157Z,5.07
2023-03-29T10:56:40.265Z,6.32
2023-03-29T10:59:24.085Z,5.70
2023-03-29T11:02:01.089Z,4.00
2023-03-29T11:04:41.354Z,4.07
2023-03-29T11:09:50.251Z,10.82
2023-03-29T11:12:40.474Z,5.82
2023-03-29T11:18:26.261Z,2.95
2023-03-29T11:21:18.374Z,2.92
2023-03-29T11:24:17.976Z,2.75
2023-03-29T11:26:54.858Z,3.53
2023-03-29T11:29:28.765Z,4.80
2023-03-29T11:32:15.420Z,4.90
2023-03-29T11:35:01.607Z,4.30
2023-03-29T11:37:37.866Z,3.97
2023-03-29T11:40:31.619Z,3.25
2023-03-29T11:43:02.763Z,2.80
2023-03-29T11:45:39.853Z,2.90
2023-03-29T11:48:14.103Z,2.00
2023-03-29T11:50:48.705Z,2.25
2023-03-29T11:53:56.692Z,2.05
2023-03-29T11:56:33.715Z,1.80
2023-03-29T11:59:07.535Z,2.40
2023-03-29T12:01:38.730Z,17.88
2023-03-29T12:04:11.359Z,17.35
2023-03-29T12:06:54.694Z,4.53
2023-03-29T12:09:42.367Z,2.47
2023-03-29T12:12:27.934Z,2.40
2023-03-29T12:15:11.278Z,2.65
2023-03-29T12:17:44.226Z,2.45
2023-03-29T12:20:28.331Z,2.60
2023-03-29T12:22:59.133Z,2.13
2023-03-29T12:25:30.975Z,2.17
2023-03-29T12:28:41.340Z,2.13
2023-03-29T12:33:59.952Z,2.47
2023-03-29T12:36:48.474Z,2.88
2023-03-29T12:39:36.824Z,2.50
2023-03-29T12:42:33.249Z,2.17
2023-03-29T12:45:39.892Z,1.73
2023-03-29T12:48:28.023Z,1.70
2023-03-29T12:51:08.426Z,1.70
2023-03-29T12:53:51.058Z,2.20
2023-03-29T12:56:24.873Z,2.30
2023-03-29T12:59:36.332Z,2.25
2023-03-29T13:02:27.590Z,2.65
2023-03-29T13:04:57.193Z,2.67
2023-03-29T13:07:28.033Z,2.05
2023-03-29T13:10:03.851Z,1.90
2023-03-29T13:12:46.343Z,1.80
2023-03-29T13:15:23.297Z,2.08
2023-03-29T13:18:14.328Z,1.80
2023-03-29T13:21:04.163Z,1.70
2023-03-29T13:23:41.188Z,2.90
2023-03-29T13:26:46.315Z,1.95
2023-03-29T13:29:33.713Z,2.00
2023-03-29T13:32:06.539Z,1.70
2023-03-29T13:34:50.692Z,1.88
2023-03-29T13:37:47.385Z,1.98
2023-03-29T13:40:26.544Z,1.95
2023-03-29T13:43:30.930Z,1.90
2023-03-29T13:45:58.593Z,1.85
2023-03-29T13:48:46.441Z,1.60
2023-03-29T13:51:13.684Z,2.00
2023-03-29T13:53:54.350Z,2.20
2023-03-29T13:56:28.932Z,2.35
2023-03-29T13:59:10.336Z,2.33
2023-03-29T14:01:50.676Z,2.03
2023-03-29T14:04:24.927Z,1.80
2023-03-29T14:06:56.210Z,2.05
2023-03-29T14:09:28.328Z,2.20
2023-03-29T14:11:56.837Z,1.70
2023-03-29T14:14:26.206Z,2.00
2023-03-29T14:16:55.504Z,2.38
2023-03-29T14:19:34.340Z,1.90
2023-03-29T14:22:02.796Z,1.85
2023-03-29T14:24:40.406Z,2.28
2023-03-29T14:27:10.130Z,1.95
2023-03-29T14:29:37.421Z,1.70
2023-03-29T14:32:16.812Z,1.95
2023-03-29T14:34:48.252Z,1.70
2023-03-29T14:37:23.989Z,1.80
2023-03-29T14:39:51.400Z,2.63
2023-03-29T14:42:21.372Z,3.03
2023-03-29T14:44:50.191Z,2.25
2023-03-29T14:47:28.655Z,2.33
2023-03-29T14:50:00.526Z,1.90
2023-03-29T14:52:29.622Z,2.33
2023-03-29T14:54:59.354Z,2.10
2023-03-29T14:57:29.231Z,1.90
2023-03-29T15:00:02.260Z,2.03
2023-03-29T15:02:32.478Z,2.28
2023-03-29T15:05:06.273Z,2.13
2023-03-29T15:07:36.448Z,2.70
2023-03-29T15:10:07.955Z,2.22
2023-03-29T15:12:37.960Z,2.42
2023-03-29T15:15:07.699Z,2.13
2023-03-29T15:17:50.216Z,1.98
2023-03-29T15:20:24.174Z,2.10
2023-03-29T15:22:56.599Z,2.17
2023-03-29T15:25:27.480Z,1.88
2023-03-29T15:27:59.541Z,2.17
2023-03-29T15:30:34.384Z,2.15
2023-03-29T15:33:09.316Z,2.28
2023-03-29T15:35:38.148Z,2.08
2023-03-29T15:38:06.991Z,1.90
2023-03-29T15:40:34.424Z,2.80
2023-03-29T15:43:01.915Z,2.35
2023-03-29T15:45:29.399Z,1.90
2023-03-29T15:47:57.059Z,2.05
2023-03-29T15:50:24.680Z,2.45
2023-03-29T15:52:52.887Z,2.28
2023-03-29T15:55:20.814Z,2.60
2023-03-29T15:57:48.785Z,2.17
2023-03-29T16:00:17.986Z,2.28
2023-03-29T16:02:45.372Z,2.50
2023-03-29T16:05:13.164Z,2.40
2023-03-29T16:07:40.503Z,2.35
2023-03-29T16:10:09.125Z,2.17
2023-03-29T16:12:38.475Z,2.10
2023-03-29T16:15:12.291Z,2.20
2023-03-29T16:17:39.696Z,2.00
2023-03-29T16:20:08.675Z,2.03
2023-03-29T16:22:37.100Z,2.42
2023-03-29T16:25:06.673Z,3.10
2023-03-29T16:27:34.004Z,2.50
2023-03-29T16:30:01.335Z,2.53
2023-03-29T16:32:28.798Z,3.00
2023-03-29T16:34:58.414Z,2.75
2023-03-29T16:37:25.859Z,2.58
2023-03-29T16:39:53.765Z,2.33
2023-03-29T16:42:21.550Z,2.63
2023-03-29T16:44:49.078Z,2.53
2023-03-29T16:47:16.602Z,2.50
2023-03-29T16:49:45.838Z,2.20
2023-03-29T16:52:14.054Z,1.98
2023-03-29T16:54:42.509Z,2.42
2023-03-29T16:57:10.401Z,2.67
2023-03-29T16:59:38.060Z,2.33
2023-03-29T17:02:05.347Z,2.63
2023-03-29T17:04:32.792Z,2.28
2023-03-29T17:07:00.049Z,2.67
2023-03-29T17:09:29.303Z,2.50
2023-03-29T17:11:57.275Z,2.63
2023-03-29T17:14:25.503Z,2.35
2023-03-29T17:16:53.641Z,2.70
2023-03-29T17:19:21.435Z,3.13
2023-03-29T17:21:49.515Z,5.55
2023-03-29T17:24:17.272Z,6.00
2023-03-29T17:26:45.799Z,5.75
2023-03-29T17:29:13.892Z,5.22
2023-03-29T17:31:47.546Z,6.50
2023-03-29T17:34:16.415Z,5.30
2023-03-29T17:36:45.725Z,9.38
2023-03-29T17:39:15.333Z,6.40
2023-03-29T17:41:42.847Z,5.43
2023-03-29T17:44:10.498Z,4.13
2023-03-29T17:46:38.678Z,3.75
2023-03-29T17:49:09.232Z,3.45
2023-03-29T17:51:36.530Z,3.38
2023-03-29T17:54:06.393Z,3.53
2023-03-29T17:56:35.025Z,3.35
2023-03-29T17:59:07.463Z,3.88
2023-03-29T18:01:36.405Z,4.40
2023-03-29T18:04:06.438Z,3.30
2023-03-29T18:06:33.713Z,4.00
2023-03-29T18:09:01.578Z,4.32
2023-03-29T18:11:29.072Z,4.72
2023-03-29T18:13:59.559Z,4.80
2023-03-29T18:16:27.206Z,4.78
2023-03-29T18:18:54.979Z,4.05
2023-03-29T18:21:22.348Z,3.97
2023-03-29T18:23:52.866Z,4.45
2023-03-29T18:26:22.861Z,4.20
2023-03-29T18:28:51.135Z,3.80
2023-03-29T18:31:19.816Z,3.90
2023-03-29T18:33:47.583Z,4.88
2023-03-29T18:36:15.997Z,3.25
2023-03-29T18:38:43.706Z,4.15
2023-03-29T18:41:12.754Z,5.07
2023-03-29T18:43:41.153Z,4.07
2023-03-29T18:46:08.757Z,3.22
2023-03-29T18:48:39.101Z,3.50
2023-03-29T18:51:08.290Z,4.03
2023-03-29T18:53:36.444Z,3.38
2023-03-29T18:56:04.493Z,3.72
2023-03-29T18:58:32.272Z,3.75
2023-03-29T19:01:04.222Z,3.97
2023-03-29T19:03:32.871Z,4.40
2023-03-29T19:06:01.697Z,4.50
2023-03-29T19:08:29.362Z,4.10
2023-03-29T19:11:05.583Z,4.07
2023-03-29T19:13:33.411Z,3.70
2023-03-29T19:16:00.771Z,3.35
2023-03-29T19:18:28.333Z,3.65
2023-03-29T19:20:56.195Z,3.60
2023-03-29T19:23:28.339Z,3.63
2023-03-29T19:26:01.383Z,3.38
2023-03-29T19:28:29.505Z,3.13
2023-03-29T19:30:58.990Z,3.42
2023-03-29T19:33:26.816Z,3.25
2023-03-29T19:35:54.173Z,3.35
2023-03-29T19:38:21.818Z,3.15
2023-03-29T19:40:50.953Z,3.00
2023-03-29T19:43:18.819Z,3.80
2023-03-29T19:45:47.529Z,2.63
2023-03-29T19:48:22.519Z,3.17
2023-03-29T19:50:51.482Z,3.10
2023-03-29T19:53:18.885Z,3.10
2023-03-29T19:55:46.236Z,2.95
2023-03-29T19:58:13.492Z,3.13
2023-03-29T20:00:41.768Z,2.92
2023-03-29T20:03:09.998Z,3.22
2023-03-29T20:05:38.603Z,3.10
2023-03-29T20:08:07.169Z,3.13
2023-03-29T20:10:35.636Z,3.10
2023-03-29T20:13:03.567Z,2.95
2023-03-29T20:15:31.202Z,3.75
2023-03-29T20:18:00.426Z,2.88
2023-03-29T20:20:28.545Z,2.80
2023-03-29T20:23:04.587Z,2.80
2023-03-29T20:25:34.246Z,3.33
2023-03-29T20:28:01.511Z,2.63
2023-03-29T20:30:28.721Z,3.00
2023-03-29T20:32:56.079Z,2.58
2023-03-29T20:35:23.333Z,2.67
2023-03-29T20:37:50.748Z,3.53
2023-03-29T20:40:18.021Z,4.40
2023-03-29T20:42:46.395Z,3.10
2023-03-29T20:45:18.668Z,3.60
2023-03-29T20:47:50.462Z,3.08
2023-03-29T20:50:18.987Z,3.90
2023-03-29T20:52:46.403Z,3.38
2023-03-29T20:55:16.695Z,3.50
2023-03-29T20:57:44.019Z,2.97
2023-03-29T21:00:12.023Z,2.63
2023-03-29T21:02:39.508Z,2.90
2023-03-29T21:05:08.602Z,3.10
2023-03-29T21:07:36.462Z,3.15
2023-03-29T21:10:04.221Z,3.03
2023-03-29T21:12:31.606Z,3.00
2023-03-29T21:14:58.876Z,2.72
2023-03-29T21:17:26.999Z,2.95
2023-03-29T21:19:55.076Z,2.60
2023-03-29T21:22:23.253Z,2.90
2023-03-29T21:24:51.061Z,2.80
2023-03-29T21:27:18.381Z,2.70
2023-03-29T21:29:45.644Z,2.75
2023-03-29T21:32:12.878Z,2.90
2023-03-29T21:34:40.548Z,2.88
2023-03-29T21:37:07.967Z,2.58
2023-03-29T21:39:35.484Z,2.50
2023-03-29T21:42:02.902Z,2.75
2023-03-29T21:44:32.583Z,3.35
2023-03-29T21:47:02.112Z,2.65
2023-03-29T21:49:29.358Z,2.70
2023-03-29T21:51:56.938Z,2.20
2023-03-29T21:54:24.260Z,2.60
2023-03-29T21:56:51.729Z,2.83
2023-03-29T21:59:19.046Z,2.65
2023-03-29T22:01:46.519Z,2.42
2023-03-29T22:04:22.609Z,2.97
2023-03-29T22:06:56.711Z,2.47
2023-03-29T22:09:26.741Z,2.60
2023-03-29T22:11:53.984Z,3.25
2023-03-29T22:14:22.079Z,3.40
2023-03-29T22:16:49.356Z,3.22
2023-03-29T22:19:16.589Z,2.95
2023-03-29T22:21:44.129Z,2.78
2023-03-29T22:24:11.468Z,2.75
2023-03-29T22:26:38.729Z,2.55
2023-03-29T22:29:06.005Z,3.15
2023-03-29T22:31:33.287Z,2.50
2023-03-29T22:34:02.025Z,2.75
2023-03-29T22:36:31.118Z,3.08
2023-03-29T22:38:58.469Z,2.63
2023-03-29T22:41:27.668Z,2.20
2023-03-29T22:43:56.925Z,3.45
2023-03-29T22:46:24.823Z,2.47
2023-03-29T22:48:52.359Z,2.88
2023-03-29T22:51:20.378Z,3.15
2023-03-29T22:53:47.686Z,3.50
2023-03-29T22:56:16.011Z,3.22
2023-03-29T22:58:43.615Z,3.10
2023-03-29T23:01:13.876Z,2.60
2023-03-29T23:06:09.112Z,2.80
2023-03-29T23:08:36.392Z,2.95
2023-03-29T23:11:04.063Z,2.92
2023-03-29T23:13:33.382Z,2.42
2023-03-29T23:16:02.355Z,2.85
2023-03-29T23:18:31.070Z,2.67
2023-03-29T23:20:58.971Z,3.10
2023-03-29T23:23:26.922Z,2.72
2023-03-29T23:25:55.857Z,2.63
2023-03-29T23:28:27.053Z,2.67
2023-03-29T23:31:00.337Z,2.78
2023-03-29T23:33:33.676Z,2.35
2023-03-29T23:36:05.515Z,2.50
2023-03-29T23:38:34.362Z,2.60
2023-03-29T23:41:03.928Z,2.20
2023-03-29T23:43:33.686Z,2.50
2023-03-29T23:46:03.047Z,2.33
2023-03-29T23:48:31.620Z,2.50
2023-03-29T23:50:58.948Z,2.40
2023-03-29T23:53:28.993Z,2.50
2023-03-29T23:55:59.440Z,2.83
